Time;durP1;ratioP1;P1;durP2;ratioP2;P2;SDS_P1;SDS_P2;PMS_P1;PMS_P2;Temp;Humidity;BMP_temperature;BMP_pressure;BME280_temperature;BME280_humidity;BME280_pressure;Samples;Min_cycle;Max_cycle;Signal;HPM_P1;HPM_P2
2023/10/03 00:01:05;;;;;;;7.25;4.60;;;21.60;99.90;;;;;;5073816;28;20020;-65
2023/10/03 00:03:32;;;;;;;7.65;4.97;;;21.70;99.90;;;;;;5073317;28;20430;-65
2023/10/03 00:05:58;;;;;;;9.55;5.10;;;21.60;99.90;;;;;;5073317;28;20460;-64
2023/10/03 00:08:26;;;;;;;8.05;5.00;;;21.60;99.90;;;;;;5073286;28;20024;-64
2023/10/03 00:10:52;;;;;;;9.90;4.90;;;21.60;99.90;;;;;;5072893;28;20024;-64
2023/10/03 00:13:19;;;;;;;7.82;4.90;;;21.60;99.90;;;;;;5073022;28;20414;-64
2023/10/03 00:15:45;;;;;;;8.27;4.70;;;21.60;99.90;;;;;;5073022;28;20060;-65
2023/10/03 00:18:15;;;;;;;8.40;5.07;;;21.60;99.90;;;;;;5073688;28;20048;-64
2023/10/03 00:20:41;;;;;;;7.30;4.80;;;21.50;99.90;;;;;;5073124;28;20016;-64
2023/10/03 00:23:07;;;;;;;7.15;5.30;;;21.50;99.90;;;;;;5072836;28;20100;-65
2023/10/03 00:25:34;;;;;;;10.52;5.13;;;21.50;99.90;;;;;;5072621;28;20039;-65
2023/10/03 00:28:00;;;;;;;10.02;5.32;;;21.50;99.90;;;;;;5073261;28;20020;-64
2023/10/03 00:30:30;;;;;;;12.35;4.95;;;21.40;99.90;;;;;;5072759;28;20086;-65
2023/10/03 00:32:57;;;;;;;9.70;5.20;;;21.40;99.90;;;;;;5072468;28;20032;-65
2023/10/03 00:35:25;;;;;;;8.13;5.28;;;21.80;99.90;;;;;;5073001;28;20111;-64
2023/10/03 00:37:52;;;;;;;8.07;5.65;;;21.90;99.90;;;;;;5072650;28;20025;-65
2023/10/03 00:42:53;;;;;;;10.02;5.68;;;22.10;99.90;;;;;;5093499;28;20040;-65
2023/10/03 00:45:21;;;;;;;11.65;5.50;;;22.10;99.90;;;;;;5092557;28;20051;-64
2023/10/03 00:47:48;;;;;;;9.70;5.40;;;22.20;99.90;;;;;;5092738;28;20406;-65
2023/10/03 00:50:25;;;;;;;10.55;5.57;;;22.20;99.90;;;;;;5093037;28;20164;-65
2023/10/03 00:53:00;;;;;;;9.75;5.93;;;22.20;99.90;;;;;;5092781;28;20099;-65
2023/10/03 00:55:27;;;;;;;8.93;5.47;;;22.10;99.90;;;;;;5092633;28;20506;-65
2023/10/03 00:58:06;;;;;;;9.27;5.65;;;22.10;99.90;;;;;;5092635;28;20457;-65
2023/10/03 01:00:37;;;;;;;7.65;5.50;;;22.20;99.90;;;;;;5092690;28;20059;-65
2023/10/03 01:03:03;;;;;;;9.15;5.57;;;22.10;99.90;;;;;;5092546;28;20388;-65
2023/10/03 01:05:29;;;;;;;10.57;5.75;;;22.10;99.90;;;;;;5092545;28;20371;-65
2023/10/03 01:07:55;;;;;;;8.50;5.85;;;22.00;99.90;;;;;;5091991;28;20051;-65
2023/10/03 01:10:21;;;;;;;13.18;6.20;;;22.00;99.90;;;;;;5092336;28;20035;-65
2023/10/03 01:12:48;;;;;;;9.88;5.85;;;22.10;99.90;;;;;;5092572;28;20103;-65
2023/10/03 01:15:22;;;;;;;10.07;5.68;;;21.90;99.90;;;;;;5092114;28;20028;-64
2023/10/03 01:17:52;;;;;;;12.23;6.72;;;21.70;99.90;;;;;;5092319;28;20024;-64
2023/10/03 01:20:28;;;;;;;9.10;6.03;;;21.50;99.90;;;;;;5092329;28;20490;-65
2023/10/03 01:22:54;;;;;;;10.15;6.30;;;21.30;99.90;;;;;;5092128;28;20449;-65
2023/10/03 01:25:21;;;;;;;9.50;6.05;;;21.20;99.90;;;;;;5092114;28;20114;-64
2023/10/03 01:27:47;;;;;;;10.85;6.22;;;21.00;99.90;;;;;;5092445;28;20065;-65
2023/10/03 01:30:13;;;;;;;10.52;6.57;;;21.00;99.90;;;;;;5092377;28;20028;-65
2023/10/03 01:32:46;;;;;;;9.38;6.40;;;20.90;99.90;;;;;;5090785;28;20028;-65
2023/10/03 01:35:14;;;;;;;11.82;6.50;;;20.80;99.90;;;;;;5091953;28;20043;-64
2023/10/03 01:37:39;;;;;;;9.05;6.38;;;20.80;99.90;;;;;;5091877;28;20028;-64
2023/10/03 01:40:13;;;;;;;12.57;6.72;;;20.70;99.90;;;;;;5092434;28;20097;-64
2023/10/03 01:42:46;;;;;;;10.27;6.55;;;20.70;99.90;;;;;;5092067;28;20072;-64
2023/10/03 01:45:32;;;;;;;9.85;6.60;;;20.60;99.90;;;;;;5091801;28;20051;-64
2023/10/03 01:48:04;;;;;;;11.48;6.85;;;20.60;99.90;;;;;;5091809;28;20375;-65
2023/10/03 01:50:33;;;;;;;10.80;6.93;;;20.60;99.90;;;;;;5091813;28;20035;-65
2023/10/03 01:52:59;;;;;;;11.55;6.95;;;20.50;99.90;;;;;;5092031;28;20012;-64
2023/10/03 01:55:25;;;;;;;8.73;6.68;;;20.50;99.90;;;;;;5092181;28;20047;-65
2023/10/03 01:57:52;;;;;;;11.07;6.80;;;20.40;99.90;;;;;;5091650;28;20048;-63
2023/10/03 02:00:23;;;;;;;11.38;7.22;;;20.40;99.90;;;;;;5091839;28;20038;-64
2023/10/03 02:02:49;;;;;;;10.73;7.28;;;20.30;99.90;;;;;;5091900;28;20422;-65
2023/10/03 02:05:16;;;;;;;11.32;7.25;;;20.30;99.90;;;;;;5091361;28;20390;-63
2023/10/03 02:07:43;;;;;;;11.63;7.03;;;20.30;99.90;;;;;;5090781;28;20028;-65
2023/10/03 02:10:12;;;;;;;10.77;6.80;;;20.50;99.90;;;;;;5091672;28;20043;-65
2023/10/03 02:12:40;;;;;;;7.85;6.43;;;20.70;99.90;;;;;;5090338;28;20394;-65
2023/10/03 02:15:09;;;;;;;11.70;6.80;;;20.80;99.90;;;;;;5091393;28;20044;-65
2023/10/03 02:17:35;;;;;;;10.80;6.80;;;20.90;99.90;;;;;;5093737;28;20020;-65
2023/10/03 02:20:16;;;;;;;12.68;6.90;;;20.90;99.90;;;;;;5095565;28;20036;-65
2023/10/03 02:22:41;;;;;;;9.85;6.43;;;20.90;99.90;;;;;;5095241;28;20016;-64
2023/10/03 02:25:10;;;;;;;12.13;6.90;;;20.90;99.90;;;;;;5095638;28;20596;-65
2023/10/03 02:27:37;;;;;;;9.98;6.47;;;20.90;99.90;;;;;;5095323;28;20031;-64
2023/10/03 02:30:11;;;;;;;10.98;6.63;;;21.00;99.90;;;;;;5094750;28;20399;-64
2023/10/03 02:32:37;;;;;;;10.88;7.07;;;21.00;99.90;;;;;;5095099;28;20432;-64
2023/10/03 02:35:06;;;;;;;11.30;7.40;;;20.80;99.90;;;;;;5094727;28;20032;-65
2023/10/03 02:37:33;;;;;;;11.65;7.50;;;20.90;99.90;;;;;;5095719;28;20028;-65
2023/10/03 02:40:00;;;;;;;8.63;7.00;;;20.80;99.90;;;;;;5095036;28;20036;-65
2023/10/03 02:42:26;;;;;;;10.68;6.88;;;20.90;99.90;;;;;;5095333;28;20100;-65
2023/10/03 02:44:52;;;;;;;11.07;7.93;;;20.90;99.90;;;;;;5095138;28;20040;-65
2023/10/03 02:47:17;;;;;;;11.40;7.85;;;20.80;99.90;;;;;;5095544;28;20067;-64
2023/10/03 02:49:43;;;;;;;9.35;7.40;;;20.60;99.90;;;;;;5094736;28;20058;-64
2023/10/03 02:52:10;;;;;;;12.60;7.95;;;20.40;99.90;;;;;;5095019;28;20028;-65
2023/10/03 02:54:35;;;;;;;9.73;7.65;;;20.30;99.90;;;;;;5094878;28;20024;-64
2023/10/03 02:57:01;;;;;;;13.75;8.00;;;20.30;99.90;;;;;;5095305;28;20032;-64
2023/10/03 02:59:27;;;;;;;11.57;8.20;;;20.20;99.90;;;;;;5094954;28;20154;-65
2023/10/03 03:01:56;;;;;;;12.40;7.85;;;20.20;99.90;;;;;;5094829;28;20035;-64
2023/10/03 03:04:23;;;;;;;14.05;8.57;;;20.20;99.90;;;;;;5094322;28;20039;-64
2023/10/03 03:06:51;;;;;;;14.18;8.43;;;20.20;99.90;;;;;;5094833;28;20031;-64
2023/10/03 03:09:23;;;;;;;13.52;9.13;;;20.20;99.90;;;;;;5095099;28;20036;-64
2023/10/03 03:11:49;;;;;;;12.25;8.75;;;20.20;99.90;;;;;;5093314;28;20035;-64
2023/10/03 03:14:15;;;;;;;13.75;9.48;;;20.20;99.90;;;;;;5094533;28;20036;-65
2023/10/03 03:16:40;;;;;;;13.95;8.90;;;20.20;99.90;;;;;;5094884;28;20063;-64
2023/10/03 03:19:06;;;;;;;13.52;8.20;;;20.20;99.90;;;;;;5094135;28;20443;-64
2023/10/03 03:21:33;;;;;;;15.15;8.85;;;20.20;99.90;;;;;;5094507;28;20028;-64
2023/10/03 03:24:08;;;;;;;12.77;8.13;;;20.10;99.90;;;;;;5094353;28;20035;-64
2023/10/03 03:26:39;;;;;;;15.57;8.60;;;20.30;99.90;;;;;;5094361;28;20047;-64
2023/10/03 03:29:35;;;;;;;15.70;8.20;;;20.30;99.90;;;;;;5094076;28;20032;-64
2023/10/03 03:31:52;;;;;;;16.13;8.73;;;20.20;99.90;;;;;;5093953;28;20036;-64
2023/10/03 03:34:18;;;;;;;12.63;7.68;;;20.20;99.90;;;;;;5093861;28;20028;-64
2023/10/03 03:36:46;;;;;;;15.70;7.85;;;20.40;99.90;;;;;;5093858;28;20110;-65
2023/10/03 03:39:16;;;;;;;15.50;7.57;;;20.50;99.90;;;;;;5094328;28;20028;-65
2023/10/03 03:41:43;;;;;;;16.48;7.32;;;20.50;99.90;;;;;;5094332;28;20500;-65
2023/10/03 03:44:12;;;;;;;17.42;6.82;;;20.70;99.90;;;;;;5093836;28;20031;-64
2023/10/03 03:46:41;;;;;;;15.45;6.63;;;20.90;99.90;;;;;;5093477;28;20118;-65
2023/10/03 03:49:12;;;;;;;16.42;7.13;;;21.00;99.90;;;;;;5093979;28;20482;-64
2023/10/03 03:51:39;;;;;;;16.40;6.90;;;21.10;99.90;;;;;;5093976;28;20355;-64
2023/10/03 03:54:08;;;;;;;16.70;7.00;;;21.20;99.90;;;;;;5093780;28;20039;-65
2023/10/03 03:56:34;;;;;;;16.48;7.13;;;21.40;99.90;;;;;;5093772;28;20032;-65
2023/10/03 03:59:00;;;;;;;15.90;6.30;;;21.50;99.90;;;;;;5093693;28;20035;-65
2023/10/03 04:01:26;;;;;;;15.93;6.20;;;21.60;99.90;;;;;;5093238;28;20035;-64
2023/10/03 04:03:53;;;;;;;17.02;6.65;;;21.70;99.90;;;;;;5093916;28;20604;-65
2023/10/03 04:06:19;;;;;;;17.38;6.00;;;21.70;99.90;;;;;;5093583;28;20028;-64
2023/10/03 04:08:45;;;;;;;13.82;6.35;;;21.80;99.90;;;;;;5093624;28;20052;-65
2023/10/03 04:11:13;;;;;;;16.20;6.30;;;21.70;99.90;;;;;;5092265;28;20560;-64
2023/10/03 04:13:49;;;;;;;16.08;6.30;;;21.70;99.90;;;;;;5093844;28;20052;-65
2023/10/03 04:16:22;;;;;;;16.45;6.20;;;21.80;99.90;;;;;;5092899;28;20116;-65
2023/10/03 04:18:51;;;;;;;18.30;6.60;;;21.70;99.90;;;;;;5093499;28;20482;-64
2023/10/03 04:21:20;;;;;;;15.55;5.90;;;21.70;99.90;;;;;;5093798;28;20031;-65
2023/10/03 04:23:47;;;;;;;19.35;6.47;;;21.60;99.90;;;;;;5093186;28;20439;-65
2023/10/03 04:26:13;;;;;;;18.15;6.75;;;21.50;99.90;;;;;;5093078;28;20043;-64
2023/10/03 04:28:39;;;;;;;17.15;6.32;;;21.40;99.90;;;;;;5093196;28;20024;-65
2023/10/03 04:31:05;;;;;;;18.02;6.65;;;21.30;99.90;;;;;;5093164;28;20109;-64
2023/10/03 04:33:30;;;;;;;17.33;6.55;;;21.30;99.90;;;;;;5093072;28;20040;-64
2023/10/03 04:35:57;;;;;;;21.38;6.90;;;21.30;99.90;;;;;;5092902;28;20482;-65
2023/10/03 04:38:23;;;;;;;16.42;6.75;;;21.30;99.90;;;;;;5093036;28;20020;-64
2023/10/03 04:40:49;;;;;;;17.88;6.95;;;21.30;99.90;;;;;;5092155;28;20557;-64
2023/10/03 04:43:15;;;;;;;16.63;7.45;;;21.20;99.90;;;;;;5092777;28;20032;-65
2023/10/03 04:45:41;;;;;;;15.15;6.40;;;21.30;99.90;;;;;;5092545;28;20077;-64
2023/10/03 04:48:08;;;;;;;17.85;6.85;;;21.30;99.90;;;;;;5092375;28;20024;-65
2023/10/03 04:50:37;;;;;;;15.77;7.38;;;21.30;99.90;;;;;;5092765;28;20032;-64
2023/10/03 04:53:05;;;;;;;17.02;7.20;;;21.30;99.90;;;;;;5093108;28;20546;-64
2023/10/03 04:55:32;;;;;;;15.27;6.72;;;21.30;99.90;;;;;;5092659;28;20047;-64
2023/10/03 04:57:58;;;;;;;15.68;6.93;;;21.30;99.90;;;;;;5092716;28;20012;-65
2023/10/03 05:00:23;;;;;;;14.30;6.57;;;21.30;99.90;;;;;;5092314;28;20501;-64
2023/10/03 05:02:53;;;;;;;13.68;6.28;;;21.30;99.90;;;;;;5092566;28;20020;-64
2023/10/03 05:05:23;;;;;;;14.75;6.53;;;21.30;99.90;;;;;;5092539;28;20036;-65
2023/10/03 05:07:52;;;;;;;13.50;6.63;;;21.30;99.90;;;;;;5092545;28;20032;-65
2023/10/03 05:10:19;;;;;;;13.98;7.05;;;21.30;99.90;;;;;;5092420;28;20024;-65
2023/10/03 05:12:45;;;;;;;15.68;6.68;;;21.30;99.90;;;;;;5092543;28;20045;-64
2023/10/03 05:15:12;;;;;;;16.85;7.40;;;21.30;99.90;;;;;;5084734;28;20070;-63
2023/10/03 05:17:38;;;;;;;16.70;6.68;;;21.40;99.90;;;;;;5074626;28;20107;-64
2023/10/03 05:20:05;;;;;;;19.33;7.38;;;21.60;99.90;;;;;;5078723;28;20031;-65
2023/10/03 05:22:32;;;;;;;17.75;6.60;;;21.70;99.90;;;;;;5092184;28;20024;-65
2023/10/03 05:24:58;;;;;;;18.58;7.45;;;21.90;99.90;;;;;;5091700;28;20490;-65
2023/10/03 05:27:24;;;;;;;16.70;7.43;;;21.90;99.90;;;;;;5091751;28;20020;-65
2023/10/03 05:29:51;;;;;;;14.98;7.28;;;21.90;99.90;;;;;;5091812;28;20028;-65
2023/10/03 05:32:17;;;;;;;21.15;7.78;;;22.10;99.90;;;;;;5091835;28;20107;-65
2023/10/03 05:34:43;;;;;;;13.52;6.80;;;22.10;99.90;;;;;;5091601;28;20455;-65
2023/10/03 05:37:10;;;;;;;16.25;7.05;;;22.20;99.90;;;;;;5091651;28;20063;-65
2023/10/03 05:39:36;;;;;;;17.70;7.90;;;22.10;99.90;;;;;;5091391;28;20069;-65
2023/10/03 05:42:02;;;;;;;15.52;6.95;;;22.30;99.90;;;;;;5091995;28;20028;-65
2023/10/03 05:44:27;;;;;;;14.38;6.75;;;22.20;99.90;;;;;;5074893;28;20419;-65
2023/10/03 05:46:55;;;;;;;13.85;6.60;;;22.30;99.90;;;;;;5071719;28;20028;-65
2023/10/03 05:49:24;;;;;;;13.57;6.57;;;22.30;99.90;;;;;;5071573;28;20044;-65
2023/10/03 05:51:55;;;;;;;19.63;7.28;;;22.20;99.90;;;;;;5073738;28;20033;-65
2023/10/03 05:54:23;;;;;;;16.63;6.57;;;22.20;99.90;;;;;;5075832;28;20521;-65
2023/10/03 05:56:49;;;;;;;17.30;6.80;;;22.10;99.90;;;;;;5075490;28;20078;-65
2023/10/03 05:59:15;;;;;;;19.00;6.32;;;21.90;99.90;;;;;;5075276;28;20069;-65
2023/10/03 06:01:42;;;;;;;17.38;6.90;;;21.90;99.90;;;;;;5075485;28;20471;-65
2023/10/03 06:04:08;;;;;;;13.68;5.90;;;21.80;99.90;;;;;;5075295;28;20035;-65
2023/10/03 06:06:34;;;;;;;16.80;6.15;;;21.70;99.90;;;;;;5075375;28;20020;-65
2023/10/03 06:09:01;;;;;;;16.10;5.72;;;21.70;99.90;;;;;;5075380;28;20032;-65
2023/10/03 06:11:26;;;;;;;13.93;5.93;;;21.60;99.90;;;;;;5075725;28;20024;-65
2023/10/03 06:13:52;;;;;;;15.80;5.28;;;21.60;99.90;;;;;;5075109;28;20050;-65
2023/10/03 06:16:18;;;;;;;16.35;5.90;;;21.50;99.90;;;;;;5075094;28;20083;-65
2023/10/03 06:18:44;;;;;;;15.20;5.45;;;21.50;99.90;;;;;;5075859;28;20035;-65
2023/10/03 06:21:10;;;;;;;18.13;5.75;;;21.50;99.90;;;;;;5075220;28;20552;-65
2023/10/03 06:23:39;;;;;;;15.32;5.75;;;21.50;99.90;;;;;;5075328;28;20039;-65
2023/10/03 06:26:05;;;;;;;15.77;5.65;;;21.40;99.90;;;;;;5074733;28;20506;-65
2023/10/03 06:28:31;;;;;;;18.90;5.82;;;21.40;99.90;;;;;;5075000;28;20035;-65
2023/10/03 06:30:57;;;;;;;16.77;6.25;;;21.40;99.90;;;;;;5075122;28;20025;-65
2023/10/03 06:33:23;;;;;;;16.67;5.70;;;21.40;99.90;;;;;;5075214;28;20096;-65
2023/10/03 06:35:52;;;;;;;17.98;5.65;;;21.40;99.90;;;;;;5075405;28;20037;-65
2023/10/03 06:38:19;;;;;;;18.92;6.35;;;21.40;99.90;;;;;;5075207;28;20020;-65
2023/10/03 06:40:46;;;;;;;19.95;5.88;;;21.40;99.90;;;;;;5074330;28;20162;-64
2023/10/03 06:43:12;;;;;;;18.88;6.15;;;21.30;99.90;;;;;;5074915;28;20039;-65
2023/10/03 06:45:38;;;;;;;12.93;4.88;;;21.40;99.90;;;;;;5075027;28;20037;-64
2023/10/03 06:48:05;;;;;;;14.32;4.97;;;21.40;99.90;;;;;;5074944;28;20029;-65
2023/10/03 06:50:31;;;;;;;16.77;5.13;;;21.40;99.90;;;;;;5074910;28;20028;-64
2023/10/03 06:52:57;;;;;;;12.05;4.63;;;21.60;99.90;;;;;;5075045;28;20101;-64
2023/10/03 06:55:23;;;;;;;12.80;4.22;;;21.80;99.90;;;;;;5073971;28;20071;-62
2023/10/03 06:57:50;;;;;;;11.02;4.03;;;21.90;99.90;;;;;;5075126;28;20025;-65
2023/10/03 07:00:17;;;;;;;11.77;4.10;;;21.90;99.90;;;;;;5074497;28;20037;-64
2023/10/03 07:02:44;;;;;;;9.95;3.70;;;22.10;99.90;;;;;;5073803;28;20025;-64
2023/10/03 07:05:11;;;;;;;9.75;4.03;;;22.10;99.90;;;;;;5074387;28;20104;-65
2023/10/03 07:07:37;;;;;;;13.05;4.40;;;22.20;99.90;;;;;;5074715;28;20028;-65
2023/10/03 07:10:04;;;;;;;13.57;4.20;;;22.20;99.90;;;;;;5074152;28;20044;-64
2023/10/03 07:12:30;;;;;;;11.32;3.65;;;22.20;99.90;;;;;;5074457;28;20029;-64
2023/10/03 07:14:56;;;;;;;13.70;3.80;;;22.20;99.90;;;;;;5074584;28;20024;-64
2023/10/03 07:17:23;;;;;;;11.95;3.90;;;22.30;99.90;;;;;;5074247;28;20044;-65
2023/10/03 07:19:49;;;;;;;14.27;3.75;;;22.30;99.90;;;;;;5074296;28;20032;-65
2023/10/03 07:22:16;;;;;;;10.55;3.70;;;22.20;99.90;;;;;;5074231;28;20025;-65
2023/10/03 07:24:43;;;;;;;13.23;3.55;;;22.20;99.90;;;;;;5073984;28;20386;-65
2023/10/03 07:27:08;;;;;;;9.18;3.38;;;22.10;99.90;;;;;;5073948;28;20027;-65
2023/10/03 07:29:42;;;;;;;10.63;3.80;;;21.90;99.90;;;;;;5074247;28;20021;-65
2023/10/03 07:32:12;;;;;;;9.18;3.42;;;21.80;99.90;;;;;;5073714;28;20031;-65
2023/10/03 07:34:42;;;;;;;13.80;3.92;;;21.80;99.90;;;;;;5074286;28;20032;-65
2023/10/03 07:37:09;;;;;;;9.50;3.35;;;21.80;99.90;;;;;;5073734;28;20116;-65
2023/10/03 07:39:34;;;;;;;11.07;3.72;;;21.80;99.90;;;;;;5073660;28;20021;-64
2023/10/03 07:42:01;;;;;;;13.48;3.55;;;21.80;99.90;;;;;;5072532;28;20119;-65
2023/10/03 07:44:27;;;;;;;15.10;3.50;;;21.70;99.90;;;;;;5073639;28;20422;-64
2023/10/03 07:46:53;;;;;;;12.20;3.33;;;21.60;99.90;;;;;;5073846;28;20372;-64
2023/10/03 07:49:19;;;;;;;9.75;3.03;;;21.60;99.90;;;;;;5073650;28;20032;-65
2023/10/03 07:51:45;;;;;;;8.32;3.17;;;21.60;99.90;;;;;;5073676;28;20552;-66
2023/10/03 07:54:13;;;;;;;9.57;2.80;;;21.60;99.90;;;;;;5073516;28;20021;-65
2023/10/03 07:56:42;;;;;;;10.60;2.85;;;21.60;99.90;;;;;;5073533;28;20037;-66
2023/10/03 07:59:08;;;;;;;8.25;2.97;;;21.50;99.90;;;;;;5073514;28;20093;-65
2023/10/03 08:01:38;;;;;;;9.48;3.00;;;21.50;99.90;;;;;;5073657;28;20082;-65
2023/10/03 08:04:08;;;;;;;13.50;3.25;;;21.40;99.90;;;;;;5073410;28;20029;-65
2023/10/03 08:06:34;;;;;;;8.75;2.53;;;21.60;99.90;;;;;;5073437;28;20493;-65
2023/10/03 08:09:00;;;;;;;9.80;2.88;;;21.70;99.90;;;;;;5073140;28;20025;-65
2023/10/03 08:11:31;;;;;;;8.43;2.85;;;21.70;99.90;;;;;;5073143;28;20024;-65
2023/10/03 08:13:58;;;;;;;10.35;3.00;;;21.70;99.90;;;;;;5072786;28;20032;-66
2023/10/03 08:16:25;;;;;;;7.95;2.55;;;21.70;99.90;;;;;;5072475;28;20048;-64
2023/10/03 08:18:57;;;;;;;7.25;2.80;;;21.70;99.90;;;;;;5073422;28;20056;-65
2023/10/03 08:21:29;;;;;;;9.00;3.10;;;21.60;99.90;;;;;;5072464;28;20055;-64
2023/10/03 08:23:58;;;;;;;8.75;2.72;;;21.70;99.90;;;;;;5072579;28;20028;-64
2023/10/03 08:26:25;;;;;;;8.45;2.75;;;21.90;99.90;;;;;;5072984;28;20051;-64
2023/10/03 08:29:03;;;;;;;6.60;2.25;;;22.30;99.90;;;;;;5072941;28;20031;-64
2023/10/03 08:31:30;;;;;;;9.13;2.78;;;22.50;99.90;;;;;;5073029;28;20111;-64
2023/10/03 08:33:56;;;;;;;6.38;2.53;;;22.60;99.90;;;;;;5072939;28;20036;-65
2023/10/03 08:36:31;;;;;;;9.40;2.63;;;22.70;99.90;;;;;;5073092;28;20036;-65
2023/10/03 08:39:12;;;;;;;7.38;2.25;;;22.70;99.90;;;;;;5072544;28;20453;-65
2023/10/03 08:41:53;;;;;;;7.32;2.53;;;22.80;99.90;;;;;;5072677;28;20086;-64
2023/10/03 08:44:23;;;;;;;7.57;2.42;;;22.90;99.90;;;;;;5072498;28;20398;-64
2023/10/03 08:46:57;;;;;;;6.28;2.38;;;23.00;99.90;;;;;;5072646;28;20029;-64
2023/10/03 08:49:38;;;;;;;8.18;2.40;;;22.90;99.90;;;;;;5072513;28;20020;-64
2023/10/03 08:52:09;;;;;;;7.88;2.50;;;23.00;99.90;;;;;;5072268;28;20037;-64
2023/10/03 08:54:40;;;;;;;6.93;2.58;;;23.00;99.90;;;;;;5072471;28;20059;-65
2023/10/03 08:57:10;;;;;;;8.25;2.95;;;23.10;99.90;;;;;;5072543;28;20055;-64
2023/10/03 08:59:40;;;;;;;9.27;2.70;;;23.10;99.90;;;;;;5072603;28;20081;-64
2023/10/03 09:02:14;;;;;;;8.27;2.38;;;23.20;99.90;;;;;;5072467;28;20207;-64
2023/10/03 09:04:40;;;;;;;10.60;2.53;;;23.20;99.90;;;;;;5072333;28;20017;-64
2023/10/03 09:07:09;;;;;;;9.48;2.80;;;23.20;99.90;;;;;;5071981;28;20041;-65
2023/10/03 09:09:42;;;;;;;9.38;2.72;;;23.00;99.90;;;;;;5072444;28;20044;-65
2023/10/03 09:12:09;;;;;;;10.02;2.72;;;22.80;99.90;;;;;;5072377;28;20028;-64
2023/10/03 09:14:37;;;;;;;8.27;2.33;;;22.70;99.90;;;;;;5072545;28;20035;-64
2023/10/03 09:17:07;;;;;;;7.88;2.55;;;22.60;99.90;;;;;;5072103;28;20041;-64
2023/10/03 09:19:45;;;;;;;7.35;2.42;;;22.70;99.90;;;;;;5072098;28;20027;-64
2023/10/03 09:22:15;;;;;;;8.80;2.75;;;22.60;99.90;;;;;;5071494;28;20081;-65
2023/10/03 09:24:44;;;;;;;7.80;2.47;;;22.50;99.90;;;;;;5072074;28;20013;-64
2023/10/03 09:27:20;;;;;;;9.18;2.60;;;22.50;99.90;;;;;;5071733;28;20104;-67
2023/10/03 09:29:49;;;;;;;10.00;2.70;;;22.50;99.90;;;;;;5072060;28;20019;-64
2023/10/03 09:32:17;;;;;;;9.15;3.08;;;22.50;99.90;;;;;;5072002;28;20039;-64
2023/10/03 09:34:44;;;;;;;9.82;2.75;;;22.50;99.90;;;;;;5071363;28;20021;-64
2023/10/03 09:37:13;;;;;;;7.65;2.40;;;22.50;99.90;;;;;;5071785;28;20456;-64
2023/10/03 09:39:47;;;;;;;7.15;2.33;;;22.30;99.90;;;;;;5071701;28;20028;-64
2023/10/03 09:42:17;;;;;;;9.23;2.78;;;22.20;99.90;;;;;;5072051;28;20070;-64
2023/10/03 09:44:44;;;;;;;7.78;2.60;;;22.20;99.90;;;;;;5071470;28;20052;-65
2023/10/03 09:47:13;;;;;;;10.00;2.53;;;22.20;99.90;;;;;;5071914;28;20056;-64
2023/10/03 09:49:39;;;;;;;9.73;2.65;;;22.30;99.90;;;;;;5070988;28;20031;-64
2023/10/03 09:52:22;;;;;;;8.38;2.38;;;22.40;99.90;;;;;;5072497;28;20013;-63
2023/10/03 09:54:53;;;;;;;11.85;2.75;;;22.80;99.90;;;;;;5071702;28;20115;-64
2023/10/03 09:57:23;;;;;;;9.95;2.38;;;23.00;99.90;;;;;;5071277;28;20036;-64
2023/10/03 09:59:50;;;;;;;8.02;2.30;;;23.30;99.90;;;;;;5071642;28;20029;-64
2023/10/03 10:02:30;;;;;;;8.30;2.58;;;23.50;99.90;;;;;;5071862;28;20448;-64
2023/10/03 10:05:00;;;;;;;7.90;2.40;;;23.40;99.90;;;;;;5070741;28;20402;-64
2023/10/03 10:07:34;;;;;;;6.75;2.40;;;23.50;99.90;;;;;;5071355;28;20064;-64
2023/10/03 10:10:20;;;;;;;8.48;2.60;;;23.50;99.90;;;;;;5071419;28;20078;-64
2023/10/03 10:13:20;;;;;;;6.40;2.42;;;23.60;99.90;;;;;;5071220;28;20020;-66
2023/10/03 10:16:07;;;;;;;10.65;2.63;;;23.50;99.90;;;;;;5071195;28;20449;-64
2023/10/03 10:18:44;;;;;;;8.95;2.47;;;23.50;99.90;;;;;;5070509;28;20064;-64
2023/10/03 10:21:23;;;;;;;6.55;2.70;;;23.60;99.90;;;;;;5071416;28;20488;-64
2023/10/03 10:24:20;;;;;;;9.38;3.13;;;23.60;99.90;;;;;;5071517;28;20032;-64
2023/10/03 10:26:52;;;;;;;7.78;2.90;;;23.60;99.90;;;;;;5071816;28;20109;-64
2023/10/03 10:29:24;;;;;;;8.77;2.55;;;23.60;99.90;;;;;;5071230;28;20105;-64
2023/10/03 10:32:00;;;;;;;8.88;3.08;;;23.60;99.90;;;;;;5070986;28;20213;-64
2023/10/03 10:34:32;;;;;;;7.45;2.88;;;23.60;99.90;;;;;;5071126;28;20031;-64
2023/10/03 10:37:09;;;;;;;8.55;3.22;;;23.60;99.90;;;;;;5071543;28;20040;-65
2023/10/03 10:39:53;;;;;;;8.15;2.90;;;23.30;99.90;;;;;;5074372;28;20551;-64
2023/10/03 10:42:25;;;;;;;6.68;2.75;;;23.10;99.90;;;;;;5074991;28;20060;-64
2023/10/03 10:45:13;;;;;;;7.60;2.90;;;22.90;99.90;;;;;;5074704;28;20038;-64
2023/10/03 10:47:50;;;;;;;6.32;2.90;;;22.60;99.90;;;;;;5074450;28;20021;-63
2023/10/03 10:50:17;;;;;;;8.20;2.78;;;22.60;99.90;;;;;;5074910;28;20079;-64
2023/10/03 10:53:02;;;;;;;8.52;3.28;;;22.50;99.90;;;;;;5075063;28;20100;-64
2023/10/03 10:55:29;;;;;;;8.40;3.53;;;22.50;99.90;;;;;;5075077;28;20032;-64
2023/10/03 10:58:07;;;;;;;7.38;3.40;;;22.50;99.90;;;;;;5074741;28;20027;-64
2023/10/03 11:00:33;;;;;;;7.38;3.15;;;22.60;99.90;;;;;;5074686;28;20032;-64
2023/10/03 11:03:03;;;;;;;6.35;2.95;;;22.60;99.90;;;;;;5074263;28;20119;-64
2023/10/03 11:05:42;;;;;;;7.57;2.70;;;22.80;99.90;;;;;;5074678;28;20035;-64
2023/10/03 11:08:08;;;;;;;5.28;2.50;;;22.70;99.90;;;;;;5074415;28;20025;-64
2023/10/03 11:10:34;;;;;;;5.65;2.65;;;22.80;99.90;;;;;;5074424;28;20035;-64
2023/10/03 11:13:03;;;;;;;4.45;2.33;;;22.70;99.90;;;;;;5074501;28;20095;-64
2023/10/03 11:15:30;;;;;;;7.38;2.88;;;22.70;99.90;;;;;;5074593;28;20112;-64
2023/10/03 11:17:58;;;;;;;6.78;2.80;;;22.70;99.90;;;;;;5073945;28;20037;-64
2023/10/03 11:20:25;;;;;;;8.60;3.28;;;22.80;99.90;;;;;;5074664;28;20023;-64
2023/10/03 11:22:50;;;;;;;8.35;3.00;;;22.80;99.90;;;;;;5074388;28;20029;-64
2023/10/03 11:25:17;;;;;;;8.45;3.20;;;22.80;99.90;;;;;;5074139;28;20560;-64
2023/10/03 11:27:43;;;;;;;9.45;3.22;;;23.00;99.90;;;;;;5074125;28;20032;-64
2023/10/03 11:30:25;;;;;;;7.70;2.85;;;23.20;99.90;;;;;;5074022;28;20028;-64
2023/10/03 11:33:00;;;;;;;8.55;3.28;;;23.60;99.90;;;;;;5073846;28;20029;-64
2023/10/03 11:35:26;;;;;;;7.88;3.30;;;23.90;99.90;;;;;;5073948;28;20490;-64
2023/10/03 11:37:53;;;;;;;8.60;3.67;;;23.90;99.90;;;;;;5074000;28;20077;-64
2023/10/03 11:40:21;;;;;;;7.40;3.20;;;24.10;99.90;;;;;;5073767;28;20150;-64
2023/10/03 11:42:47;;;;;;;6.95;3.00;;;24.30;99.90;;;;;;5074349;28;20528;-64
2023/10/03 11:45:20;;;;;;;7.55;3.45;;;24.30;99.90;;;;;;5073242;28;20079;-64
2023/10/03 11:48:07;;;;;;;7.82;3.10;;;24.10;99.90;;;;;;5073853;28;20025;-64
2023/10/03 11:50:38;;;;;;;5.43;2.50;;;23.90;99.90;;;;;;5074038;28;20032;-64
2023/10/03 11:53:04;;;;;;;5.75;2.95;;;23.90;99.90;;;;;;5073780;28;20025;-64
2023/10/03 11:55:36;;;;;;;7.18;2.88;;;23.70;99.90;;;;;;5073670;28;20479;-64
2023/10/03 11:58:03;;;;;;;6.13;3.00;;;23.60;99.90;;;;;;5074104;28;20032;-64
2023/10/03 12:00:29;;;;;;;5.38;3.08;;;23.60;99.90;;;;;;5073254;28;20032;-64
2023/10/03 12:02:55;;;;;;;5.55;3.05;;;23.80;99.90;;;;;;5073720;28;20028;-65
2023/10/03 12:05:22;;;;;;;5.13;2.72;;;24.00;99.90;;;;;;5073027;28;20024;-64
2023/10/03 12:07:50;;;;;;;6.90;3.00;;;24.00;99.90;;;;;;5073856;28;20103;-64
2023/10/03 12:10:17;;;;;;;6.20;3.00;;;24.00;99.90;;;;;;5073490;28;20394;-64
2023/10/03 12:12:43;;;;;;;6.80;2.80;;;24.10;99.90;;;;;;5073481;28;20087;-64
2023/10/03 12:15:14;;;;;;;6.38;2.78;;;24.00;99.90;;;;;;5072671;28;20036;-64
2023/10/03 12:17:47;;;;;;;6.88;3.10;;;23.80;99.90;;;;;;5073239;28;20028;-64
2023/10/03 12:20:15;;;;;;;5.88;2.78;;;23.60;99.90;;;;;;5073348;28;20017;-64
2023/10/03 12:22:49;;;;;;;7.22;2.72;;;23.60;99.90;;;;;;5073341;28;20032;-64
2023/10/03 12:25:16;;;;;;;8.38;2.80;;;23.50;99.90;;;;;;5073092;28;20012;-64
2023/10/03 12:27:43;;;;;;;7.45;2.83;;;23.40;99.90;;;;;;5072904;28;20032;-64
2023/10/03 12:30:11;;;;;;;7.28;3.00;;;23.40;99.90;;;;;;5073048;28;20020;-64
2023/10/03 12:32:41;;;;;;;7.65;2.83;;;23.30;99.90;;;;;;5072716;28;20033;-64
2023/10/03 12:35:08;;;;;;;7.80;2.78;;;23.20;99.90;;;;;;5073099;28;20029;-64
2023/10/03 12:37:35;;;;;;;8.65;3.45;;;23.10;99.90;;;;;;5073166;28;20028;-64
2023/10/03 12:40:08;;;;;;;9.88;3.50;;;23.10;99.90;;;;;;5072799;28;20487;-64
2023/10/03 12:42:34;;;;;;;6.13;2.83;;;23.00;99.90;;;;;;5072644;28;20103;-64
2023/10/03 12:45:01;;;;;;;12.13;3.90;;;22.90;99.90;;;;;;5072274;28;20040;-64
2023/10/03 12:47:27;;;;;;;10.50;3.83;;;22.90;99.90;;;;;;5072596;28;20044;-64
2023/10/03 12:49:53;;;;;;;13.43;3.60;;;22.90;99.90;;;;;;5072722;28;20509;-64
2023/10/03 12:52:19;;;;;;;10.50;3.83;;;22.80;99.90;;;;;;5072716;28;20021;-64